createdAt,value
2019-03-25T00:02:09.825Z,5.13
2019-03-25T00:04:38.022Z,4.57
2019-03-25T00:10:16.572Z,3.90
2019-03-25T00:12:45.491Z,5.27
2019-03-25T00:15:13.719Z,4.80
2019-03-25T00:17:41.867Z,4.47
2019-03-25T00:20:11.057Z,4.47
2019-03-25T00:22:39.242Z,6.00
2019-03-25T00:25:07.482Z,6.13
2019-03-25T00:27:35.708Z,5.30
2019-03-25T00:30:04.672Z,5.50
2019-03-25T00:32:32.886Z,5.27
2019-03-25T00:35:01.014Z,5.85
2019-03-25T00:37:29.170Z,5.40
2019-03-25T00:39:57.285Z,5.43
2019-03-25T00:42:25.508Z,4.70
2019-03-25T00:44:53.879Z,5.22
2019-03-25T00:47:22.065Z,4.97
2019-03-25T00:49:50.214Z,5.10
2019-03-25T00:52:19.021Z,5.37
2019-03-25T00:54:50.243Z,6.07
2019-03-25T00:57:17.137Z,5.45
2019-03-25T00:59:45.281Z,7.07
2019-03-25T01:02:13.478Z,6.30
2019-03-25T01:04:41.796Z,5.95
2019-03-25T01:07:09.993Z,4.37
2019-03-25T01:09:38.122Z,5.55
2019-03-25T01:12:07.144Z,6.83
2019-03-25T01:14:35.339Z,5.83
2019-03-25T01:17:03.518Z,5.93
2019-03-25T01:19:31.682Z,4.90
2019-03-25T01:21:59.855Z,5.60
2019-03-25T01:24:28.227Z,5.03
2019-03-25T01:26:56.345Z,4.85
2019-03-25T01:29:24.484Z,6.47
2019-03-25T01:31:52.618Z,6.97
2019-03-25T01:34:20.748Z,9.47
2019-03-25T01:36:48.950Z,8.00
2019-03-25T01:39:17.373Z,9.00
2019-03-25T01:41:45.509Z,11.05
2019-03-25T01:44:13.703Z,11.47
2019-03-25T01:46:41.829Z,13.40
2019-03-25T01:49:09.970Z,13.03
2019-03-25T01:51:38.090Z,12.20
2019-03-25T01:54:06.255Z,10.32
2019-03-25T01:56:34.389Z,11.73
2019-03-25T01:59:02.555Z,9.98
2019-03-25T02:01:30.681Z,10.00
2019-03-25T02:03:59.146Z,10.63
2019-03-25T02:06:27.272Z,8.80
2019-03-25T02:08:55.397Z,9.63
2019-03-25T02:11:23.546Z,8.67
2019-03-25T02:13:51.727Z,9.27
2019-03-25T02:16:19.863Z,8.93
2019-03-25T02:18:48.058Z,7.53
2019-03-25T02:21:16.192Z,7.60
2019-03-25T02:23:44.312Z,7.70
2019-03-25T02:26:12.467Z,6.67
2019-03-25T02:28:40.583Z,7.25
2019-03-25T02:31:08.760Z,7.50
2019-03-25T02:33:36.884Z,7.80
2019-03-25T02:36:05.003Z,7.50
2019-03-25T02:38:33.119Z,6.07
2019-03-25T02:41:03.934Z,6.97
2019-03-25T02:43:32.217Z,7.83
2019-03-25T02:46:00.408Z,7.60
2019-03-25T02:48:28.587Z,8.33
2019-03-25T02:50:56.752Z,7.90
2019-03-25T02:53:24.879Z,7.37
2019-03-25T02:55:53.036Z,8.60
2019-03-25T02:58:21.171Z,7.92
2019-03-25T03:00:49.431Z,7.70
2019-03-25T03:03:17.686Z,7.17
2019-03-25T03:05:45.809Z,7.15
2019-03-25T03:08:14.095Z,8.73
2019-03-25T03:10:42.336Z,7.03
2019-03-25T03:13:10.483Z,6.87
2019-03-25T03:15:38.688Z,8.63
2019-03-25T03:18:06.842Z,7.80
2019-03-25T03:20:35.028Z,7.50
2019-03-25T03:23:03.167Z,7.70
2019-03-25T03:25:31.359Z,7.63
2019-03-25T03:27:59.506Z,8.30
2019-03-25T03:30:27.736Z,7.80
2019-03-25T03:32:55.870Z,9.23
2019-03-25T03:35:24.079Z,8.43
2019-03-25T03:37:52.209Z,7.80
2019-03-25T03:40:20.427Z,7.60
2019-03-25T03:42:48.544Z,7.23
2019-03-25T03:45:16.738Z,6.23
2019-03-25T03:47:44.882Z,6.57
2019-03-25T03:50:15.354Z,6.50
2019-03-25T03:52:43.640Z,6.17
2019-03-25T03:55:11.776Z,5.63
2019-03-25T03:57:40.000Z,6.97
2019-03-25T04:00:09.716Z,6.77
2019-03-25T04:02:38.182Z,6.60
2019-03-25T04:05:06.355Z,7.78
2019-03-25T04:07:34.483Z,7.73
2019-03-25T04:10:02.687Z,7.00
2019-03-25T04:12:30.846Z,6.08
2019-03-25T04:14:59.042Z,6.17
2019-03-25T04:17:27.150Z,6.13
2019-03-25T04:19:55.343Z,4.00
2019-03-25T04:22:23.473Z,5.93
2019-03-25T04:24:51.678Z,6.27
2019-03-25T04:27:21.837Z,5.67
2019-03-25T04:29:49.966Z,6.30
2019-03-25T04:32:18.073Z,5.17
2019-03-25T04:34:46.187Z,5.17
2019-03-25T04:37:14.319Z,5.13
2019-03-25T04:39:42.476Z,4.50
2019-03-25T04:42:10.782Z,5.13
2019-03-25T04:44:38.907Z,5.83
2019-03-25T04:47:07.134Z,5.33
2019-03-25T04:49:35.391Z,4.60
2019-03-25T04:52:03.611Z,4.37
2019-03-25T04:54:32.515Z,3.53
2019-03-25T04:57:00.787Z,3.37
2019-03-25T04:59:28.971Z,4.17
2019-03-25T05:01:57.081Z,3.02
2019-03-25T05:04:25.284Z,3.40
2019-03-25T05:06:53.453Z,3.40
2019-03-25T05:09:21.570Z,3.90
2019-03-25T05:11:49.744Z,3.10
2019-03-25T05:14:17.864Z,2.67
2019-03-25T05:16:46.038Z,3.00
2019-03-25T05:19:14.219Z,5.65
2019-03-25T05:21:42.348Z,2.63
2019-03-25T05:24:10.571Z,2.60
2019-03-25T05:26:50.157Z,2.70
2019-03-25T05:29:08.638Z,2.73
2019-03-25T05:31:37.487Z,2.87
2019-03-25T05:34:05.710Z,3.27
2019-03-25T05:36:33.855Z,3.90
2019-03-25T05:39:01.971Z,3.98
2019-03-25T05:41:30.131Z,2.90
2019-03-25T05:43:58.729Z,3.53
2019-03-25T05:46:26.869Z,3.08
2019-03-25T05:48:55.042Z,3.07
2019-03-25T05:51:23.951Z,3.53
2019-03-25T05:53:52.065Z,2.93
2019-03-25T05:56:20.190Z,3.07
2019-03-25T05:58:48.383Z,3.97
2019-03-25T06:01:16.660Z,3.07
2019-03-25T06:03:44.834Z,3.77
2019-03-25T06:06:13.033Z,3.90
2019-03-25T06:08:41.649Z,3.47
2019-03-25T06:11:09.767Z,3.47
2019-03-25T06:13:37.876Z,4.33
2019-03-25T06:16:06.083Z,4.07
2019-03-25T06:18:34.197Z,3.77
2019-03-25T06:21:02.348Z,4.07
2019-03-25T06:23:30.447Z,3.93
2019-03-25T06:25:58.687Z,4.37
2019-03-25T06:28:26.888Z,4.63
2019-03-25T06:30:55.018Z,4.00
2019-03-25T06:33:23.143Z,5.33
2019-03-25T06:35:51.295Z,4.03
2019-03-25T06:38:19.402Z,4.45
2019-03-25T06:40:49.155Z,4.23
2019-03-25T06:43:17.403Z,4.57
2019-03-25T06:45:45.546Z,4.47
2019-03-25T06:48:13.659Z,4.70
2019-03-25T06:50:41.906Z,4.20
2019-03-25T06:53:10.101Z,4.55
2019-03-25T06:55:38.225Z,3.37
2019-03-25T06:58:06.441Z,3.90
2019-03-25T07:00:34.565Z,4.00
2019-03-25T07:03:02.762Z,3.50
2019-03-25T07:05:30.920Z,2.87
2019-03-25T07:07:59.151Z,4.13
2019-03-25T07:10:31.078Z,3.93
2019-03-25T07:12:59.911Z,3.47
2019-03-25T07:15:28.188Z,2.70
2019-03-25T07:17:56.710Z,4.27
2019-03-25T07:20:24.834Z,4.93
2019-03-25T07:22:53.029Z,3.90
2019-03-25T07:25:21.149Z,4.67
2019-03-25T07:27:49.272Z,3.05
2019-03-25T07:30:17.473Z,3.85
2019-03-25T07:32:45.591Z,4.67
2019-03-25T07:35:13.789Z,3.83
2019-03-25T07:37:41.953Z,3.52
2019-03-25T07:40:10.231Z,3.60
2019-03-25T07:42:38.362Z,3.33
2019-03-25T07:45:08.016Z,4.83
2019-03-25T07:47:36.133Z,3.05
2019-03-25T07:50:05.454Z,4.23
2019-03-25T07:52:33.570Z,5.17
2019-03-25T07:55:01.692Z,3.37
2019-03-25T07:57:31.548Z,4.03
2019-03-25T07:59:59.720Z,3.47
2019-03-25T08:02:27.878Z,5.25
2019-03-25T08:04:56.135Z,3.00
2019-03-25T08:07:24.248Z,3.55
2019-03-25T08:09:52.562Z,2.50
2019-03-25T08:12:20.799Z,1.87
2019-03-25T08:14:49.004Z,2.40
2019-03-25T08:17:17.159Z,2.20
2019-03-25T08:19:46.198Z,2.83
2019-03-25T08:22:14.305Z,2.00
2019-03-25T08:24:42.418Z,2.03
2019-03-25T08:27:10.540Z,2.30
2019-03-25T08:29:38.694Z,2.77
2019-03-25T08:32:06.828Z,2.92
2019-03-25T08:34:34.956Z,3.37
2019-03-25T08:37:04.431Z,2.63
2019-03-25T08:39:32.811Z,2.47
2019-03-25T08:42:00.939Z,2.27
2019-03-25T08:44:29.148Z,1.93
2019-03-25T08:46:57.338Z,2.70
2019-03-25T08:49:25.480Z,2.70
2019-03-25T08:51:55.264Z,1.77
2019-03-25T08:54:23.409Z,2.13
2019-03-25T08:56:51.603Z,2.90
2019-03-25T08:59:19.741Z,2.47
2019-03-25T09:01:48.663Z,2.17
2019-03-25T09:04:16.782Z,2.12
2019-03-25T09:06:47.690Z,1.10
2019-03-25T09:09:14.791Z,2.33
2019-03-25T09:11:42.968Z,1.83
2019-03-25T09:14:11.114Z,2.83
2019-03-25T09:16:39.278Z,3.60
2019-03-25T09:19:07.549Z,3.13
2019-03-25T09:21:35.650Z,2.77
2019-03-25T09:24:04.033Z,1.93
2019-03-25T09:26:32.222Z,2.43
2019-03-25T09:29:00.446Z,2.25
2019-03-25T09:31:36.811Z,2.67
2019-03-25T09:33:58.453Z,3.00
2019-03-25T09:36:26.607Z,2.20
2019-03-25T09:38:55.478Z,2.03
2019-03-25T09:41:23.683Z,3.10
2019-03-25T09:43:51.874Z,3.07
2019-03-25T09:46:20.090Z,2.15
2019-03-25T09:48:48.281Z,2.70
2019-03-25T09:51:16.516Z,1.80
2019-03-25T09:53:44.712Z,2.53
2019-03-25T09:56:12.839Z,1.93
2019-03-25T09:58:41.035Z,2.73
2019-03-25T10:01:09.223Z,2.50
2019-03-25T10:03:37.367Z,2.30
2019-03-25T10:06:05.614Z,3.03
2019-03-25T10:08:33.803Z,2.03
2019-03-25T10:11:01.919Z,2.97
2019-03-25T10:13:30.049Z,1.57
2019-03-25T10:15:58.163Z,1.47
2019-03-25T10:18:26.291Z,1.83
2019-03-25T10:20:54.495Z,1.03
2019-03-25T10:23:22.613Z,1.57
2019-03-25T10:25:50.804Z,2.03
2019-03-25T10:28:19.554Z,1.43
2019-03-25T10:30:47.751Z,1.77
2019-03-25T10:33:16.733Z,1.50
2019-03-25T10:35:44.917Z,1.40
2019-03-25T10:38:19.508Z,1.43
2019-03-25T10:40:42.900Z,1.43
2019-03-25T10:43:11.103Z,1.73
2019-03-25T10:45:39.287Z,1.53
2019-03-25T10:48:15.087Z,1.42
2019-03-25T10:50:43.206Z,2.47
2019-03-25T10:53:11.391Z,1.60
2019-03-25T10:55:39.588Z,2.07
2019-03-25T10:58:07.783Z,1.35
2019-03-25T11:00:36.009Z,2.57
2019-03-25T11:05:38.611Z,2.57
2019-03-25T11:08:06.839Z,3.13
2019-03-25T11:10:35.015Z,2.85
2019-03-25T11:13:10.563Z,2.52
2019-03-25T11:15:38.728Z,1.93
2019-03-25T11:18:07.134Z,1.87
2019-03-25T11:20:35.311Z,2.37
2019-03-25T11:23:03.503Z,2.00
2019-03-25T11:25:31.625Z,1.23
2019-03-25T11:27:59.896Z,1.42
2019-03-25T11:30:41.388Z,1.60
2019-03-25T11:33:09.529Z,1.80
2019-03-25T11:35:37.682Z,2.63
2019-03-25T11:38:05.846Z,2.80
2019-03-25T11:40:33.990Z,1.70
2019-03-25T11:43:02.247Z,2.30
2019-03-25T11:45:30.509Z,1.40
2019-03-25T11:47:58.737Z,2.10
2019-03-25T11:50:26.870Z,2.27
2019-03-25T11:52:55.085Z,1.67
2019-03-25T11:55:23.233Z,1.80
2019-03-25T11:57:51.346Z,2.10
2019-03-25T12:00:19.611Z,3.00
2019-03-25T12:02:47.733Z,5.47
2019-03-25T12:05:15.858Z,2.73
2019-03-25T12:07:44.016Z,2.33
2019-03-25T12:10:12.298Z,3.10
2019-03-25T12:12:40.460Z,2.77
2019-03-25T12:15:10.262Z,2.15
2019-03-25T12:17:38.464Z,2.22
2019-03-25T12:20:07.856Z,1.93
2019-03-25T12:22:35.978Z,2.60
2019-03-25T12:25:05.556Z,2.50
2019-03-25T12:27:33.762Z,2.17
2019-03-25T12:30:02.064Z,3.40
2019-03-25T12:32:30.336Z,38.20
2019-03-25T12:34:59.290Z,4.27
2019-03-25T12:37:27.446Z,3.20
2019-03-25T12:39:55.644Z,2.57
2019-03-25T12:42:23.773Z,3.03
2019-03-25T12:44:51.947Z,2.07
2019-03-25T12:47:25.883Z,2.73
2019-03-25T12:49:54.058Z,1.93
2019-03-25T12:52:22.183Z,1.67
2019-03-25T12:54:50.311Z,1.20
2019-03-25T12:57:18.420Z,1.77
2019-03-25T12:59:46.545Z,1.20
2019-03-25T13:02:14.749Z,1.40
2019-03-25T13:04:45.943Z,1.47
2019-03-25T13:07:14.060Z,1.80
2019-03-25T13:09:42.170Z,1.43
2019-03-25T13:12:10.282Z,1.20
2019-03-25T13:14:38.476Z,1.30
2019-03-25T13:17:06.669Z,1.13
2019-03-25T13:19:34.803Z,1.67
2019-03-25T13:22:02.928Z,1.80
2019-03-25T13:24:31.105Z,2.10
2019-03-25T13:26:59.223Z,2.17
2019-03-25T13:29:27.446Z,1.80
2019-03-25T13:31:55.595Z,2.23
2019-03-25T13:34:23.853Z,2.45
2019-03-25T13:36:51.972Z,3.33
2019-03-25T13:39:20.075Z,2.70
2019-03-25T13:41:48.223Z,2.60
2019-03-25T13:44:16.464Z,2.33
2019-03-25T13:46:44.613Z,1.93
2019-03-25T13:49:12.761Z,2.30
2019-03-25T13:51:40.939Z,2.17
2019-03-25T13:54:09.114Z,2.40
2019-03-25T13:56:37.287Z,2.50
2019-03-25T13:59:05.459Z,2.63
2019-03-25T14:01:33.634Z,4.10
2019-03-25T14:04:01.771Z,2.77
2019-03-25T14:06:30.027Z,3.30
2019-03-25T14:08:58.148Z,4.27
2019-03-25T14:11:26.307Z,4.00
2019-03-25T14:13:54.504Z,2.83
2019-03-25T14:16:22.736Z,2.17
2019-03-25T14:18:50.869Z,2.40
2019-03-25T14:21:19.142Z,2.43
2019-03-25T14:23:47.417Z,2.53
2019-03-25T14:26:15.531Z,2.47
2019-03-25T14:28:43.665Z,2.67
2019-03-25T14:31:11.768Z,1.73
2019-03-25T14:33:39.896Z,2.20
2019-03-25T14:36:08.012Z,3.67
2019-03-25T14:38:36.133Z,1.70
2019-03-25T14:41:04.343Z,2.67
2019-03-25T14:43:32.523Z,1.97
2019-03-25T14:46:00.657Z,2.20
2019-03-25T14:48:28.803Z,2.43
2019-03-25T14:53:44.722Z,2.80
2019-03-25T14:56:06.040Z,2.60
2019-03-25T14:58:34.175Z,2.47
2019-03-25T15:01:02.383Z,2.77
2019-03-25T15:03:31.322Z,2.87
2019-03-25T15:05:59.457Z,2.53
2019-03-25T15:08:27.724Z,3.00
2019-03-25T15:10:55.998Z,7.63
2019-03-25T15:13:24.150Z,3.57
2019-03-25T15:15:52.326Z,4.92
2019-03-25T15:18:20.467Z,4.77
2019-03-25T15:20:49.365Z,3.70
2019-03-25T15:23:17.606Z,3.63
2019-03-25T15:25:47.098Z,4.15
2019-03-25T15:28:15.261Z,4.03
2019-03-25T15:30:43.403Z,3.70
2019-03-25T15:33:11.567Z,3.07
2019-03-25T15:35:39.689Z,2.70
2019-03-25T15:38:07.863Z,2.27
2019-03-25T15:40:36.231Z,3.37
2019-03-25T15:43:04.747Z,4.03
2019-03-25T15:45:32.947Z,4.83
2019-03-25T15:48:01.177Z,5.23
2019-03-25T15:50:29.310Z,3.70
2019-03-25T15:52:57.419Z,3.07
2019-03-25T15:55:25.567Z,4.33
2019-03-25T15:57:53.718Z,3.90
2019-03-25T16:00:22.316Z,4.08
2019-03-25T16:02:50.485Z,3.73
2019-03-25T16:05:18.669Z,3.13
2019-03-25T16:07:46.892Z,3.42
2019-03-25T16:10:15.777Z,2.90
2019-03-25T16:12:43.910Z,2.62
2019-03-25T16:15:12.508Z,4.37
2019-03-25T16:17:43.101Z,3.58
2019-03-25T16:20:10.656Z,3.60
2019-03-25T16:22:39.594Z,2.83
2019-03-25T16:25:15.368Z,3.33
2019-03-25T16:27:43.499Z,2.97
2019-03-25T16:30:11.605Z,2.20
2019-03-25T16:32:39.740Z,3.60
2019-03-25T16:35:07.965Z,3.35
2019-03-25T16:37:36.202Z,3.53
2019-03-25T16:40:05.871Z,3.20
2019-03-25T16:42:36.696Z,2.20
2019-03-25T16:45:05.615Z,2.23
2019-03-25T16:47:42.291Z,2.73
2019-03-25T16:50:10.551Z,2.33
2019-03-25T16:52:38.747Z,2.37
2019-03-25T16:55:06.953Z,2.70
2019-03-25T16:57:35.123Z,2.10
2019-03-25T17:00:04.096Z,2.07
2019-03-25T17:02:32.261Z,1.30
2019-03-25T17:07:56.131Z,2.27
2019-03-25T17:10:28.023Z,3.40
2019-03-25T17:12:58.328Z,2.00
2019-03-25T17:15:32.261Z,1.70
2019-03-25T17:18:01.199Z,1.50
2019-03-25T17:20:30.026Z,1.20
2019-03-25T17:22:58.728Z,1.80
2019-03-25T17:25:28.728Z,1.70
2019-03-25T17:27:57.692Z,2.97
2019-03-25T17:30:26.813Z,2.90
2019-03-25T17:32:55.706Z,2.75
2019-03-25T17:35:25.815Z,1.87
2019-03-25T17:37:57.098Z,2.20
2019-03-25T17:40:33.840Z,1.80
2019-03-25T17:43:13.018Z,2.40
2019-03-25T17:45:50.612Z,3.00
2019-03-25T17:54:06.287Z,4.27
2019-03-25T17:56:46.830Z,2.60
2019-03-25T17:59:16.005Z,4.10
2019-03-25T18:01:44.710Z,4.13
2019-03-25T18:04:13.700Z,3.67
2019-03-25T18:06:46.912Z,3.13
2019-03-25T18:09:19.871Z,2.03
2019-03-25T18:11:53.717Z,1.40
2019-03-25T18:14:26.882Z,2.00
2019-03-25T18:17:01.700Z,2.03
2019-03-25T18:19:30.552Z,1.77
2019-03-25T18:22:02.135Z,2.67
2019-03-25T18:24:31.075Z,3.17
2019-03-25T18:27:05.766Z,2.27
2019-03-25T18:29:34.344Z,2.37
2019-03-25T18:32:03.217Z,1.70
2019-03-25T18:34:32.239Z,2.45
2019-03-25T18:37:01.237Z,2.10
2019-03-25T18:39:30.496Z,2.00
2019-03-25T18:41:59.549Z,2.43
2019-03-25T18:47:21.169Z,2.73
2019-03-25T18:49:52.365Z,2.77
2019-03-25T18:52:22.210Z,3.37
2019-03-25T18:54:52.482Z,2.70
2019-03-25T18:57:23.475Z,2.65
2019-03-25T18:59:58.633Z,2.30
2019-03-25T19:02:33.464Z,3.37
2019-03-25T19:05:03.768Z,3.15
2019-03-25T19:07:34.771Z,4.00
2019-03-25T19:10:05.742Z,2.60
2019-03-25T19:12:39.534Z,2.93
2019-03-25T19:15:11.689Z,3.90
2019-03-25T19:17:42.223Z,4.10
2019-03-25T19:20:13.881Z,7.27
2019-03-25T19:22:44.997Z,5.17
2019-03-25T19:25:15.587Z,4.53
2019-03-25T19:27:45.190Z,5.23
2019-03-25T19:30:17.928Z,5.00
2019-03-25T19:32:47.776Z,4.50
2019-03-25T19:35:18.559Z,3.83
2019-03-25T19:37:49.419Z,4.17
2019-03-25T19:40:19.374Z,3.77
2019-03-25T19:42:48.635Z,2.67
2019-03-25T19:45:18.625Z,2.73
2019-03-25T19:47:54.505Z,3.17
2019-03-25T19:50:25.405Z,4.07
2019-03-25T19:52:54.664Z,3.02
2019-03-25T19:55:24.487Z,9.23
2019-03-25T19:57:54.138Z,4.97
2019-03-25T20:00:35.694Z,3.67
2019-03-25T20:03:04.483Z,3.13
2019-03-25T20:05:32.732Z,3.80
2019-03-25T20:09:24.711Z,3.30
2019-03-25T20:10:50.674Z,2.47
2019-03-25T20:13:18.848Z,3.37
2019-03-25T20:15:47.097Z,4.23
2019-03-25T20:18:15.457Z,4.40
2019-03-25T20:20:44.802Z,4.27
2019-03-25T20:23:13.064Z,4.00
2019-03-25T20:25:42.895Z,4.13
2019-03-25T20:31:01.221Z,4.47
2019-03-25T20:33:39.925Z,4.87
2019-03-25T20:36:09.297Z,4.60
2019-03-25T20:38:49.934Z,4.23
2019-03-25T20:41:17.674Z,6.30
2019-03-25T20:43:46.091Z,4.47
2019-03-25T20:46:14.351Z,5.13
2019-03-25T20:48:42.603Z,5.65
2019-03-25T20:51:22.024Z,7.77
2019-03-25T20:56:28.745Z,6.27
2019-03-25T21:00:01.876Z,5.40
2019-03-25T21:02:03.948Z,4.70
2019-03-25T21:04:33.470Z,5.13
2019-03-25T21:07:03.080Z,5.65
2019-03-25T21:09:38.224Z,5.90
2019-03-25T21:12:06.482Z,5.03
2019-03-25T21:14:38.195Z,7.77
2019-03-25T21:17:33.096Z,6.90
2019-03-25T21:19:54.081Z,6.70
2019-03-25T21:22:29.651Z,6.47
2019-03-25T21:25:04.251Z,5.97
2019-03-25T21:27:32.502Z,6.50
2019-03-25T21:30:01.020Z,7.70
2019-03-25T21:32:29.468Z,8.80
2019-03-25T21:34:57.696Z,8.60
2019-03-25T21:37:27.533Z,6.57
2019-03-25T21:39:55.718Z,6.83
2019-03-25T21:42:24.026Z,6.23
2019-03-25T21:44:57.789Z,5.20
2019-03-25T21:50:48.130Z,5.90
2019-03-25T21:53:17.035Z,5.40
2019-03-25T21:55:45.299Z,4.13
2019-03-25T21:58:13.489Z,6.83
2019-03-25T22:00:41.757Z,4.20
2019-03-25T22:03:12.136Z,5.60
2019-03-25T22:05:39.951Z,6.00
2019-03-25T22:08:08.151Z,4.70
2019-03-25T22:10:37.027Z,3.80
2019-03-25T22:13:05.219Z,3.87
2019-03-25T22:15:33.883Z,5.05
2019-03-25T22:18:02.008Z,13.07
2019-03-25T22:20:30.132Z,5.80
2019-03-25T22:22:58.310Z,4.30
2019-03-25T22:25:26.515Z,4.43
2019-03-25T22:27:54.717Z,4.62
2019-03-25T22:30:25.812Z,6.40
2019-03-25T22:32:52.887Z,6.37
2019-03-25T22:35:21.123Z,6.37
2019-03-25T22:37:49.257Z,7.43
2019-03-25T22:40:17.526Z,5.30
2019-03-25T22:42:45.750Z,3.98
2019-03-25T22:45:15.447Z,3.50
2019-03-25T22:47:43.587Z,3.20
2019-03-25T22:50:19.401Z,2.50
2019-03-25T22:52:47.555Z,2.90
2019-03-25T22:55:16.457Z,2.83
2019-03-25T22:57:44.585Z,3.00
2019-03-25T23:00:14.546Z,3.63
2019-03-25T23:02:42.780Z,3.53
2019-03-25T23:05:11.074Z,2.73
2019-03-25T23:07:49.753Z,3.72
2019-03-25T23:10:17.937Z,2.97
2019-03-25T23:12:46.111Z,3.30
2019-03-25T23:15:14.230Z,4.27
2019-03-25T23:17:42.465Z,3.40
2019-03-25T23:20:10.734Z,4.07
2019-03-25T23:22:39.611Z,3.43
2019-03-25T23:25:07.811Z,3.20
2019-03-25T23:27:35.938Z,3.17
2019-03-25T23:30:05.089Z,4.03
2019-03-25T23:32:33.263Z,4.90
2019-03-25T23:35:01.414Z,4.43
2019-03-25T23:37:29.609Z,3.80
2019-03-25T23:39:58.477Z,3.23
2019-03-25T23:42:26.599Z,2.33
2019-03-25T23:44:54.806Z,2.27
2019-03-25T23:47:22.991Z,3.87
2019-03-25T23:49:51.182Z,1.73
2019-03-25T23:52:19.324Z,2.75
2019-03-25T23:54:47.457Z,2.43
2019-03-25T23:57:16.314Z,4.00
2019-03-25T23:59:44.441Z,3.25
